Terminal Aerodrome Forecast
Issued by NWS Cleveland, OH

Home | Current Version | Previous Version | Graphics & Text | Print | Product List | Glossary On
Versions: 1 2 3 4 5 6 7 8 9 10 11 12 13 14 15
000
FTUS41 KCLE 151137
TAFYNG
TAF
KYNG 151137Z 1512/1612 16003KT P6SM SCT250
      TEMPO 1512/1513 5SM BR
     FM151800 30005KT P6SM SCT060
     FM152300 34004KT P6SM SCT250=

USA.gov is the U.S. government's official web portal to all federal, state and local government web resources and services.